Time;durP1;ratioP1;P1;durP2;ratioP2;P2;SDS_P1;SDS_P2;PMS_P1;PMS_P2;Temp;Humidity;BMP_temperature;BMP_pressure;BME280_temperature;BME280_humidity;BME280_pressure;Samples;Min_cycle;Max_cycle;Signal;HPM_P1;HPM_P2
2023/06/29 00:00:38;;;;;;;33.90;13.68;;;;;;;;;;5015047;28;20048;-68
2023/06/29 00:03:04;;;;;;;34.95;16.63;;;;;;;;;;5015769;28;20572;-68
2023/06/29 00:05:30;;;;;;;33.55;13.88;;;;;;;;;;5015350;28;20067;-68
2023/06/29 00:07:58;;;;;;;36.28;15.63;;;;;;;;;;5014006;28;20025;-68
2023/06/29 00:10:24;;;;;;;41.55;14.90;;;;;;;;;;5015465;28;20048;-68
2023/06/29 00:12:49;;;;;;;40.15;16.48;;;;;;;;;;5015033;28;20021;-68
2023/06/29 00:15:15;;;;;;;38.88;16.90;;;;;;;;;;5015722;28;20021;-68
2023/06/29 00:17:40;;;;;;;36.92;16.13;;;;;;;;;;5014419;28;20022;-68
2023/06/29 00:20:12;;;;;;;39.65;14.25;;;;;;;;;;5015570;28;20022;-68
2023/06/29 00:22:39;;;;;;;34.80;16.83;;;;;;;;;;5014660;28;20398;-68
2023/06/29 00:25:07;;;;;;;37.95;16.35;;;;;;;;;;5015221;28;20471;-68
2023/06/29 00:27:32;;;;;;;39.38;17.23;;;;;;;;;;5011716;28;20069;-68
2023/06/29 00:29:57;;;;;;;39.85;17.30;;;;;;;;;;5016303;28;20025;-68
2023/06/29 00:32:23;;;;;;;39.67;16.48;;;;;;;;;;5015018;28;20032;-68
2023/06/29 00:34:48;;;;;;;45.13;18.15;;;;;;;;;;5014536;28;20087;-68
2023/06/29 00:37:13;;;;;;;37.78;16.20;;;;;;;;;;5014118;28;20030;-68
2023/06/29 00:39:39;;;;;;;36.55;17.48;;;;;;;;;;5014513;28;20465;-68
2023/06/29 00:42:04;;;;;;;39.63;18.67;;;;;;;;;;5013988;28;20532;-68
2023/06/29 00:44:30;;;;;;;40.08;17.02;;;;;;;;;;5015205;28;20029;-68
2023/06/29 00:46:55;;;;;;;43.17;17.50;;;;;;;;;;5014654;28;20025;-68
2023/06/29 00:49:21;;;;;;;48.65;20.52;;;;;;;;;;5013784;28;20022;-68
2023/06/29 00:51:51;;;;;;;48.42;19.75;;;;;;;;;;5013818;28;20025;-68
2023/06/29 00:54:17;;;;;;;48.35;18.70;;;;;;;;;;5013393;28;20025;-68
2023/06/29 00:56:43;;;;;;;45.67;17.45;;;;;;;;;;5013281;28;20064;-68
2023/06/29 00:59:08;;;;;;;49.13;20.55;;;;;;;;;;5014079;28;20030;-68
2023/06/29 01:01:33;;;;;;;43.55;18.05;;;;;;;;;;5014663;28;20026;-68
2023/06/29 01:03:59;;;;;;;51.90;20.00;;;;;;;;;;5013229;28;20491;-68
2023/06/29 01:06:31;;;;;;;47.80;18.92;;;;;;;;;;5013296;28;20030;-68
2023/06/29 01:09:04;;;;;;;50.88;21.42;;;;;;;;;;5013494;28;20471;-68
2023/06/29 01:11:34;;;;;;;46.85;18.35;;;;;;;;;;4997857;28;20032;-68
2023/06/29 01:14:01;;;;;;;43.55;19.50;;;;;;;;;;4999927;28;20026;-68
2023/06/29 01:16:26;;;;;;;43.00;18.55;;;;;;;;;;5010633;28;20060;-68
2023/06/29 01:18:52;;;;;;;38.72;15.93;;;;;;;;;;5011218;28;20497;-68
2023/06/29 01:21:18;;;;;;;43.72;19.08;;;;;;;;;;5012380;28;20057;-68
2023/06/29 01:23:45;;;;;;;50.67;20.73;;;;;;;;;;5014293;28;20022;-68
2023/06/29 01:26:11;;;;;;;41.83;17.85;;;;;;;;;;5011758;28;20475;-68
2023/06/29 01:28:38;;;;;;;46.60;19.48;;;;;;;;;;5013449;28;20032;-68
2023/06/29 01:31:06;;;;;;;49.28;21.05;;;;;;;;;;5014080;28;20032;-68
2023/06/29 01:33:32;;;;;;;47.47;17.17;;;;;;;;;;5011836;28;20109;-68
2023/06/29 01:36:08;;;;;;;40.90;17.65;;;;;;;;;;5013684;28;20098;-68
2023/06/29 01:38:37;;;;;;;39.58;17.13;;;;;;;;;;5012678;28;20044;-68
2023/06/29 01:41:04;;;;;;;49.83;19.80;;;;;;;;;;4996161;28;20053;-68
2023/06/29 01:43:30;;;;;;;48.63;19.25;;;;;;;;;;5013707;28;20018;-68
2023/06/29 01:45:56;;;;;;;51.78;20.15;;;;;;;;;;5009553;28;20024;-68
2023/06/29 01:48:21;;;;;;;51.55;18.55;;;;;;;;;;4995330;28;20037;-68
2023/06/29 01:50:48;;;;;;;47.42;18.95;;;;;;;;;;5003025;28;20028;-68
2023/06/29 01:53:13;;;;;;;55.30;20.08;;;;;;;;;;5012257;28;20033;-68
2023/06/29 01:55:38;;;;;;;53.63;20.63;;;;;;;;;;5012905;28;20022;-68
2023/06/29 01:58:04;;;;;;;41.95;17.38;;;;;;;;;;5013013;28;20042;-68
2023/06/29 02:00:29;;;;;;;48.20;19.67;;;;;;;;;;5012668;28;20018;-68
2023/06/29 02:02:54;;;;;;;53.83;21.45;;;;;;;;;;5013861;28;20033;-68
2023/06/29 02:05:21;;;;;;;44.35;19.27;;;;;;;;;;5013372;28;20464;-68
2023/06/29 02:07:46;;;;;;;48.35;19.65;;;;;;;;;;5013537;28;20036;-68
2023/06/29 02:10:12;;;;;;;45.10;19.48;;;;;;;;;;5012549;28;20398;-68
2023/06/29 02:12:39;;;;;;;49.00;20.65;;;;;;;;;;5016017;28;20033;-68
2023/06/29 02:15:05;;;;;;;45.90;18.77;;;;;;;;;;5015998;28;20033;-68
2023/06/29 02:17:30;;;;;;;42.78;19.25;;;;;;;;;;5017639;28;20029;-68
2023/06/29 02:19:55;;;;;;;46.17;19.58;;;;;;;;;;5016450;28;20505;-68
2023/06/29 02:22:21;;;;;;;46.55;20.60;;;;;;;;;;5017441;28;20091;-68
2023/06/29 02:24:46;;;;;;;46.08;19.90;;;;;;;;;;5016893;28;20028;-68
2023/06/29 02:27:12;;;;;;;44.47;19.13;;;;;;;;;;5017151;28;20024;-68
2023/06/29 02:29:37;;;;;;;46.33;22.25;;;;;;;;;;5017444;28;20390;-68
2023/06/29 02:32:03;;;;;;;54.53;20.58;;;;;;;;;;5015606;28;20024;-68
2023/06/29 02:34:29;;;;;;;49.60;20.48;;;;;;;;;;4998668;28;20037;-68
2023/06/29 02:36:55;;;;;;;49.38;19.67;;;;;;;;;;4997237;28;20101;-68
2023/06/29 02:39:20;;;;;;;58.25;21.92;;;;;;;;;;5012477;28;20036;-68
2023/06/29 02:41:45;;;;;;;37.95;19.00;;;;;;;;;;5016884;28;20638;-68
2023/06/29 02:44:11;;;;;;;46.80;21.10;;;;;;;;;;5016718;28;20067;-69
2023/06/29 02:46:36;;;;;;;52.90;21.42;;;;;;;;;;5017129;28;20022;-68
2023/06/29 02:49:02;;;;;;;52.95;20.08;;;;;;;;;;5016322;28;20419;-68
2023/06/29 02:51:27;;;;;;;44.80;17.10;;;;;;;;;;5016631;28;20021;-68
2023/06/29 02:53:52;;;;;;;50.33;23.20;;;;;;;;;;5016190;28;20364;-68
2023/06/29 02:56:18;;;;;;;44.28;19.55;;;;;;;;;;5015655;28;20034;-68
2023/06/29 02:58:43;;;;;;;40.35;17.65;;;;;;;;;;5016753;28;20030;-68
2023/06/29 03:01:08;;;;;;;50.03;19.95;;;;;;;;;;5016902;28;20026;-68
2023/06/29 03:03:34;;;;;;;44.45;19.55;;;;;;;;;;5016812;28;20024;-68
2023/06/29 03:05:59;;;;;;;44.13;19.92;;;;;;;;;;5015752;28;20484;-68
2023/06/29 03:08:24;;;;;;;47.53;19.98;;;;;;;;;;5016922;28;20033;-68
2023/06/29 03:10:50;;;;;;;42.70;17.63;;;;;;;;;;5016575;28;20026;-68
2023/06/29 03:13:15;;;;;;;44.85;19.27;;;;;;;;;;5016031;28;20037;-68
2023/06/29 03:15:41;;;;;;;47.90;18.65;;;;;;;;;;5016171;28;20017;-69
2023/06/29 03:18:06;;;;;;;50.63;20.27;;;;;;;;;;5015500;28;20028;-68
2023/06/29 03:20:31;;;;;;;50.17;20.88;;;;;;;;;;5016395;28;20438;-68
2023/06/29 03:22:57;;;;;;;44.30;17.83;;;;;;;;;;5015789;28;20034;-68
2023/06/29 03:25:22;;;;;;;36.22;15.63;;;;;;;;;;5015534;28;20537;-68
2023/06/29 03:27:47;;;;;;;53.28;20.45;;;;;;;;;;5015780;28;20034;-68
2023/06/29 03:30:13;;;;;;;47.30;19.52;;;;;;;;;;5016143;28;20034;-68
2023/06/29 03:32:38;;;;;;;46.33;20.05;;;;;;;;;;5015458;28;20029;-68
2023/06/29 03:35:04;;;;;;;52.95;20.02;;;;;;;;;;5016353;28;20028;-68
2023/06/29 03:37:29;;;;;;;50.95;20.10;;;;;;;;;;5016663;28;20020;-68
2023/06/29 03:39:54;;;;;;;45.58;18.13;;;;;;;;;;5016383;28;20034;-68
2023/06/29 03:42:20;;;;;;;49.60;19.35;;;;;;;;;;5015223;28;20018;-68
2023/06/29 03:44:45;;;;;;;50.65;20.15;;;;;;;;;;5015856;28;20021;-67
2023/06/29 03:47:10;;;;;;;50.08;23.05;;;;;;;;;;5015041;28;20026;-68
2023/06/29 03:49:36;;;;;;;44.63;19.63;;;;;;;;;;5015620;28;20026;-68
2023/06/29 03:52:01;;;;;;;48.30;19.35;;;;;;;;;;5015897;28;20024;-67
2023/06/29 03:54:27;;;;;;;52.15;22.65;;;;;;;;;;5015720;28;20033;-68
2023/06/29 03:56:54;;;;;;;54.63;21.23;;;;;;;;;;5014607;28;20049;-67
2023/06/29 03:59:19;;;;;;;55.13;23.55;;;;;;;;;;5014398;28;20029;-68
2023/06/29 04:01:44;;;;;;;52.00;23.17;;;;;;;;;;5014119;28;20029;-68
2023/06/29 04:04:10;;;;;;;54.40;23.63;;;;;;;;;;5015020;28;20022;-67
2023/06/29 04:06:35;;;;;;;53.55;24.15;;;;;;;;;;5015750;28;20431;-68
2023/06/29 04:09:00;;;;;;;62.55;22.70;;;;;;;;;;5015695;28;20020;-68
2023/06/29 04:11:26;;;;;;;48.40;22.48;;;;;;;;;;5016176;28;20490;-68
2023/06/29 04:13:51;;;;;;;50.83;22.92;;;;;;;;;;5015350;28;20030;-68
2023/06/29 04:16:16;;;;;;;56.63;21.30;;;;;;;;;;5016340;28;20025;-68
2023/06/29 04:18:42;;;;;;;61.85;25.30;;;;;;;;;;5016244;28;20022;-68
2023/06/29 04:21:07;;;;;;;58.67;23.10;;;;;;;;;;5015758;28;20052;-68
2023/06/29 04:23:33;;;;;;;67.68;26.88;;;;;;;;;;5014724;28;20044;-68
2023/06/29 04:26:02;;;;;;;59.38;23.70;;;;;;;;;;5016586;28;20026;-69
2023/06/29 04:28:28;;;;;;;62.20;24.33;;;;;;;;;;5016086;28;20112;-68
2023/06/29 04:30:53;;;;;;;52.85;22.45;;;;;;;;;;5014384;28;20048;-67
2023/06/29 04:33:19;;;;;;;51.50;20.27;;;;;;;;;;5014292;28;20053;-67
2023/06/29 04:35:45;;;;;;;55.50;22.50;;;;;;;;;;5013159;28;20022;-67
2023/06/29 04:38:11;;;;;;;61.08;23.42;;;;;;;;;;5013705;28;20026;-67
2023/06/29 04:40:37;;;;;;;53.63;21.55;;;;;;;;;;5014809;28;20033;-67
2023/06/29 04:43:02;;;;;;;55.28;23.02;;;;;;;;;;5013757;28;20080;-68
2023/06/29 04:45:28;;;;;;;56.42;23.02;;;;;;;;;;5014155;28;20026;-68
2023/06/29 04:47:54;;;;;;;58.25;23.52;;;;;;;;;;5014925;28;20357;-68
2023/06/29 04:50:26;;;;;;;63.60;23.55;;;;;;;;;;5013789;28;20037;-68
2023/06/29 04:52:55;;;;;;;51.33;22.23;;;;;;;;;;5014293;28;20511;-68
2023/06/29 04:55:21;;;;;;;57.75;23.13;;;;;;;;;;5013863;28;20034;-68
2023/06/29 04:57:46;;;;;;;55.35;24.92;;;;;;;;;;5013025;28;20073;-68
2023/06/29 05:00:12;;;;;;;53.88;21.55;;;;;;;;;;5013928;28;20033;-67
2023/06/29 05:02:38;;;;;;;57.22;22.52;;;;;;;;;;5014134;28;20057;-67
2023/06/29 05:05:04;;;;;;;55.47;22.90;;;;;;;;;;5014259;28;20026;-67
2023/06/29 05:07:29;;;;;;;52.88;19.17;;;;;;;;;;5014467;28;20113;-67
2023/06/29 05:09:55;;;;;;;52.47;21.75;;;;;;;;;;5013449;28;20072;-67
2023/06/29 05:12:21;;;;;;;49.92;20.17;;;;;;;;;;5015013;28;20383;-67
2023/06/29 05:14:47;;;;;;;57.35;24.45;;;;;;;;;;5014048;28;20110;-68
2023/06/29 05:17:12;;;;;;;57.85;23.90;;;;;;;;;;5014421;28;20030;-68
2023/06/29 05:19:37;;;;;;;56.88;25.50;;;;;;;;;;5013225;28;20430;-67
2023/06/29 05:22:03;;;;;;;49.55;21.63;;;;;;;;;;5014126;28;20022;-67
2023/06/29 05:24:29;;;;;;;54.05;22.08;;;;;;;;;;5014094;28;20022;-68
2023/06/29 05:26:55;;;;;;;48.92;21.95;;;;;;;;;;5014019;28;20108;-68
2023/06/29 05:29:20;;;;;;;47.80;19.35;;;;;;;;;;5013946;28;20032;-68
2023/06/29 05:31:46;;;;;;;46.60;19.70;;;;;;;;;;5014817;28;20022;-68
2023/06/29 05:34:11;;;;;;;56.17;23.48;;;;;;;;;;5012856;28;20035;-68
2023/06/29 05:36:36;;;;;;;52.67;20.15;;;;;;;;;;5014140;28;20030;-67
2023/06/29 05:39:03;;;;;;;48.38;20.80;;;;;;;;;;5013044;28;20476;-68
2023/06/29 05:41:29;;;;;;;47.38;20.67;;;;;;;;;;5014444;28;20025;-68
2023/06/29 05:43:54;;;;;;;48.47;19.73;;;;;;;;;;5014587;28;20026;-69
2023/06/29 05:46:19;;;;;;;45.28;18.77;;;;;;;;;;5016033;28;20026;-69
2023/06/29 05:48:45;;;;;;;48.90;19.60;;;;;;;;;;5019233;28;20021;-69
2023/06/29 05:51:10;;;;;;;43.10;17.45;;;;;;;;;;5019372;28;20056;-69
2023/06/29 05:53:35;;;;;;;37.70;17.30;;;;;;;;;;5019715;28;20467;-69
2023/06/29 05:56:01;;;;;;;56.92;23.33;;;;;;;;;;5018918;28;20030;-69
2023/06/29 05:58:26;;;;;;;51.17;21.25;;;;;;;;;;5019539;28;20025;-69
2023/06/29 06:00:52;;;;;;;47.83;20.70;;;;;;;;;;5019315;28;20479;-69
2023/06/29 06:03:19;;;;;;;50.30;21.52;;;;;;;;;;5019521;28;20018;-69
2023/06/29 06:05:45;;;;;;;48.63;24.15;;;;;;;;;;5019148;28;20426;-69
2023/06/29 06:08:10;;;;;;;51.53;22.90;;;;;;;;;;5019036;28;20021;-69
2023/06/29 06:10:35;;;;;;;55.20;22.67;;;;;;;;;;5019115;28;20022;-69
2023/06/29 06:13:02;;;;;;;50.15;21.17;;;;;;;;;;5019495;28;20546;-69
2023/06/29 06:15:28;;;;;;;50.30;21.88;;;;;;;;;;5019231;28;20030;-69
2023/06/29 06:17:53;;;;;;;48.35;22.02;;;;;;;;;;5019708;28;20037;-69
2023/06/29 06:20:18;;;;;;;50.72;23.80;;;;;;;;;;5018749;28;20387;-69
2023/06/29 06:22:44;;;;;;;44.92;19.15;;;;;;;;;;5019032;28;20074;-69
2023/06/29 06:25:09;;;;;;;42.13;20.65;;;;;;;;;;5018913;28;20032;-69
2023/06/29 06:27:34;;;;;;;46.17;20.10;;;;;;;;;;5017514;28;20034;-69
2023/06/29 06:30:04;;;;;;;46.63;20.15;;;;;;;;;;5017384;28;20026;-69
2023/06/29 06:32:29;;;;;;;42.90;18.40;;;;;;;;;;5018980;28;20034;-69
2023/06/29 06:34:55;;;;;;;44.45;19.90;;;;;;;;;;5018812;28;20029;-69
2023/06/29 06:37:20;;;;;;;45.30;21.23;;;;;;;;;;5018921;28;20419;-69
2023/06/29 06:39:46;;;;;;;36.22;16.98;;;;;;;;;;5017936;28;20056;-69
2023/06/29 06:42:11;;;;;;;45.85;21.95;;;;;;;;;;5018165;28;20029;-69
2023/06/29 06:44:48;;;;;;;38.15;19.75;;;;;;;;;;5016971;28;20022;-69
2023/06/29 06:47:14;;;;;;;42.25;19.23;;;;;;;;;;5018473;28;20048;-69
2023/06/29 06:49:40;;;;;;;38.70;17.40;;;;;;;;;;5017609;28;20030;-69
2023/06/29 06:52:06;;;;;;;42.42;20.90;;;;;;;;;;5017550;28;20403;-69
2023/06/29 06:54:31;;;;;;;40.65;17.67;;;;;;;;;;5017745;28;20022;-69
2023/06/29 06:56:56;;;;;;;41.80;20.02;;;;;;;;;;5017429;28;20318;-69
2023/06/29 06:59:22;;;;;;;42.92;19.25;;;;;;;;;;5017880;28;20044;-69
2023/06/29 07:01:47;;;;;;;44.53;19.88;;;;;;;;;;5016093;28;20032;-69
2023/06/29 07:04:12;;;;;;;46.83;19.88;;;;;;;;;;5017354;28;20044;-69
2023/06/29 07:06:38;;;;;;;45.63;20.08;;;;;;;;;;5017296;28;20467;-69
2023/06/29 07:09:04;;;;;;;42.15;19.02;;;;;;;;;;5017755;28;20022;-69
2023/06/29 07:11:29;;;;;;;46.78;20.75;;;;;;;;;;5015826;28;20112;-69
2023/06/29 07:13:55;;;;;;;48.38;24.88;;;;;;;;;;5016995;28;20395;-69
2023/06/29 07:16:20;;;;;;;51.00;23.48;;;;;;;;;;5017067;28;20076;-69
2023/06/29 07:19:06;;;;;;;48.70;22.70;;;;;;;;;;5016972;28;20037;-69
2023/06/29 07:21:32;;;;;;;40.28;18.02;;;;;;;;;;5016390;28;20025;-69
2023/06/29 07:23:58;;;;;;;44.85;21.63;;;;;;;;;;5016828;28;20091;-69
2023/06/29 07:26:23;;;;;;;49.20;22.05;;;;;;;;;;5015790;28;20038;-69
2023/06/29 07:28:48;;;;;;;41.17;19.92;;;;;;;;;;5016651;28;20034;-69
2023/06/29 07:31:14;;;;;;;44.30;20.85;;;;;;;;;;5017135;28;20408;-69
2023/06/29 07:33:41;;;;;;;33.08;16.63;;;;;;;;;;5015713;28;20033;-69
2023/06/29 07:36:06;;;;;;;32.47;15.95;;;;;;;;;;5016749;28;20025;-69
2023/06/29 07:38:31;;;;;;;28.40;14.77;;;;;;;;;;5016259;28;20033;-69
2023/06/29 07:40:57;;;;;;;26.85;13.52;;;;;;;;;;5015593;28;20036;-69
2023/06/29 07:43:22;;;;;;;22.65;11.35;;;;;;;;;;5015312;28;20091;-70
2023/06/29 07:45:48;;;;;;;27.48;12.82;;;;;;;;;;5015101;28;20032;-69
2023/06/29 07:48:13;;;;;;;23.95;12.68;;;;;;;;;;5015053;28;20018;-69
2023/06/29 07:50:38;;;;;;;33.08;12.70;;;;;;;;;;5015065;28;20100;-69
2023/06/29 07:53:04;;;;;;;27.35;14.32;;;;;;;;;;5013715;28;20444;-69
2023/06/29 07:55:29;;;;;;;28.17;12.70;;;;;;;;;;5014167;28;20022;-69
2023/06/29 07:57:54;;;;;;;31.08;13.27;;;;;;;;;;5015296;28;20030;-69
2023/06/29 08:00:21;;;;;;;24.52;12.10;;;;;;;;;;5014684;28;20026;-70
2023/06/29 08:02:49;;;;;;;27.45;13.45;;;;;;;;;;5014978;28;20030;-70
2023/06/29 08:05:14;;;;;;;28.75;14.60;;;;;;;;;;5014757;28;20099;-70
2023/06/29 08:07:41;;;;;;;29.55;14.65;;;;;;;;;;5014874;28;20045;-70
2023/06/29 08:10:07;;;;;;;37.78;15.45;;;;;;;;;;5013712;28;20030;-70
2023/06/29 08:12:32;;;;;;;29.77;14.52;;;;;;;;;;5013531;28;20044;-71
2023/06/29 08:14:57;;;;;;;31.77;16.15;;;;;;;;;;5014596;28;20026;-70
2023/06/29 08:17:23;;;;;;;33.40;14.82;;;;;;;;;;5015415;28;20444;-70
2023/06/29 08:19:48;;;;;;;33.08;14.32;;;;;;;;;;5013239;28;20029;-70
2023/06/29 08:22:13;;;;;;;32.97;15.50;;;;;;;;;;4997522;28;20050;-70
2023/06/29 08:24:39;;;;;;;28.08;13.48;;;;;;;;;;5015836;28;20392;-70
2023/06/29 08:27:04;;;;;;;30.45;15.13;;;;;;;;;;5015718;28;20029;-70
2023/06/29 08:29:30;;;;;;;30.70;14.10;;;;;;;;;;5014341;28;20034;-70
2023/06/29 08:31:55;;;;;;;28.63;13.32;;;;;;;;;;5013091;28;20038;-71
2023/06/29 08:34:20;;;;;;;29.30;14.93;;;;;;;;;;5014182;28;20030;-71
2023/06/29 08:36:46;;;;;;;33.70;14.60;;;;;;;;;;5014111;28;20021;-70
2023/06/29 08:39:11;;;;;;;32.35;14.05;;;;;;;;;;5013990;28;20048;-71
2023/06/29 08:41:36;;;;;;;31.50;13.40;;;;;;;;;;5014027;28;20521;-71
2023/06/29 08:44:04;;;;;;;36.28;14.27;;;;;;;;;;5013155;28;20020;-71
2023/06/29 08:46:31;;;;;;;34.35;13.25;;;;;;;;;;5014136;28;20062;-70
2023/06/29 08:48:57;;;;;;;30.70;13.43;;;;;;;;;;5013902;28;20026;-71
2023/06/29 08:51:22;;;;;;;29.83;13.30;;;;;;;;;;5012792;28;20069;-71
2023/06/29 08:53:49;;;;;;;30.23;13.95;;;;;;;;;;5012995;28;20380;-71
2023/06/29 08:56:15;;;;;;;30.27;13.95;;;;;;;;;;5012712;28;20041;-71
2023/06/29 08:58:42;;;;;;;30.17;13.52;;;;;;;;;;5012904;28;20021;-71
2023/06/29 09:01:07;;;;;;;28.17;14.52;;;;;;;;;;5012632;28;20392;-71
2023/06/29 09:03:35;;;;;;;24.20;11.57;;;;;;;;;;5013766;28;20025;-71
2023/06/29 09:06:02;;;;;;;27.70;12.68;;;;;;;;;;4996221;28;20032;-71
2023/06/29 09:08:28;;;;;;;27.42;12.27;;;;;;;;;;5013693;28;20053;-72
2023/06/29 09:10:54;;;;;;;25.90;10.88;;;;;;;;;;5013802;28;20483;-72
2023/06/29 09:13:21;;;;;;;21.58;9.82;;;;;;;;;;5012915;28;20072;-71
2023/06/29 09:15:48;;;;;;;22.55;9.15;;;;;;;;;;5012333;28;20026;-72
2023/06/29 09:18:13;;;;;;;19.00;9.55;;;;;;;;;;5013805;28;20030;-71
2023/06/29 09:20:39;;;;;;;20.20;10.63;;;;;;;;;;5013430;28;20026;-71
2023/06/29 09:23:05;;;;;;;27.48;11.73;;;;;;;;;;5013693;28;20050;-71
2023/06/29 09:25:32;;;;;;;25.58;11.13;;;;;;;;;;5012290;28;20021;-72
2023/06/29 09:28:05;;;;;;;23.27;10.52;;;;;;;;;;5013337;28;20034;-71
2023/06/29 09:30:38;;;;;;;22.52;11.35;;;;;;;;;;5009584;28;20021;-72
2023/06/29 09:33:11;;;;;;;26.65;12.40;;;;;;;;;;5007859;28;20038;-71
2023/06/29 09:35:39;;;;;;;22.35;9.48;;;;;;;;;;5004930;28;20028;-70
2023/06/29 09:38:04;;;;;;;23.65;10.60;;;;;;;;;;5011654;28;20096;-70
2023/06/29 09:40:30;;;;;;;26.65;13.05;;;;;;;;;;5011858;28;20022;-70
2023/06/29 09:42:55;;;;;;;25.88;11.88;;;;;;;;;;5012187;28;20041;-70
2023/06/29 09:45:21;;;;;;;29.48;15.13;;;;;;;;;;5013212;28;20391;-70
2023/06/29 09:47:51;;;;;;;26.88;13.15;;;;;;;;;;5012119;28;20029;-70
2023/06/29 09:50:18;;;;;;;28.45;12.48;;;;;;;;;;5010593;28;20109;-71
2023/06/29 09:52:47;;;;;;;24.30;12.07;;;;;;;;;;5013043;28;20089;-70
2023/06/29 09:55:16;;;;;;;25.63;12.85;;;;;;;;;;5011579;28;20442;-70
2023/06/29 09:57:42;;;;;;;28.88;11.98;;;;;;;;;;5013336;28;20030;-70
2023/06/29 10:00:11;;;;;;;26.95;12.77;;;;;;;;;;5012948;28;20026;-70
2023/06/29 10:02:38;;;;;;;37.30;13.85;;;;;;;;;;5011573;28;20476;-70
2023/06/29 10:05:03;;;;;;;27.42;14.15;;;;;;;;;;5011877;28;20076;-70
2023/06/29 10:07:29;;;;;;;35.22;14.65;;;;;;;;;;5009554;28;20026;-70
2023/06/29 10:09:54;;;;;;;36.45;17.35;;;;;;;;;;5012803;28;20104;-70
2023/06/29 10:12:22;;;;;;;47.88;19.77;;;;;;;;;;5011812;28;20388;-69
2023/06/29 10:14:48;;;;;;;40.53;18.40;;;;;;;;;;5011558;28;20030;-70
2023/06/29 10:17:54;;;;;;;40.97;17.60;;;;;;;;;;5012718;28;20013;-70
2023/06/29 10:20:21;;;;;;;38.85;17.67;;;;;;;;;;5012253;28;20033;-71
2023/06/29 10:22:48;;;;;;;41.30;19.80;;;;;;;;;;5012662;28;20091;-70
2023/06/29 10:25:17;;;;;;;36.88;18.45;;;;;;;;;;5012679;28;20050;-70
2023/06/29 10:27:42;;;;;;;43.65;19.35;;;;;;;;;;5011323;28;20108;-70
2023/06/29 10:30:08;;;;;;;42.60;19.20;;;;;;;;;;5012602;28;20133;-70
2023/06/29 10:32:35;;;;;;;36.85;18.05;;;;;;;;;;5012306;28;20033;-70
2023/06/29 10:35:05;;;;;;;39.90;19.77;;;;;;;;;;5014968;28;20025;-70
2023/06/29 10:37:32;;;;;;;40.40;20.08;;;;;;;;;;5016249;28;20054;-70
2023/06/29 10:39:58;;;;;;;43.90;20.10;;;;;;;;;;5016066;28;20032;-70
2023/06/29 10:42:23;;;;;;;36.90;19.70;;;;;;;;;;5015150;28;20030;-69
2023/06/29 10:44:49;;;;;;;42.72;21.30;;;;;;;;;;5016238;28;20072;-70
2023/06/29 10:47:37;;;;;;;41.22;20.98;;;;;;;;;;5015007;28;20029;-71
2023/06/29 10:50:11;;;;;;;41.75;21.40;;;;;;;;;;5015694;28;20395;-71
2023/06/29 10:52:40;;;;;;;41.17;18.00;;;;;;;;;;5015979;28;20037;-70
2023/06/29 10:55:15;;;;;;;41.50;19.35;;;;;;;;;;5014489;28;20040;-70
2023/06/29 10:58:06;;;;;;;42.17;18.42;;;;;;;;;;5015993;28;20514;-70
2023/06/29 11:00:31;;;;;;;39.90;17.98;;;;;;;;;;5015705;28;20109;-71
2023/06/29 11:02:59;;;;;;;38.22;17.80;;;;;;;;;;5016325;28;20115;-70
2023/06/29 11:05:24;;;;;;;43.53;18.42;;;;;;;;;;5014564;28;20018;-70
2023/06/29 11:07:53;;;;;;;36.55;17.48;;;;;;;;;;5015916;28;20076;-70
2023/06/29 11:10:20;;;;;;;36.25;16.75;;;;;;;;;;5015611;28;20030;-70
2023/06/29 11:12:46;;;;;;;38.25;17.13;;;;;;;;;;5014487;28;20475;-70
2023/06/29 11:15:15;;;;;;;30.45;15.98;;;;;;;;;;5014449;28;20037;-71
2023/06/29 11:17:45;;;;;;;35.25;17.33;;;;;;;;;;5031192;28;20030;-70
2023/06/29 11:20:14;;;;;;;33.88;14.52;;;;;;;;;;5015432;28;20026;-71
2023/06/29 11:22:41;;;;;;;29.27;15.23;;;;;;;;;;5015772;28;20415;-70
2023/06/29 11:25:07;;;;;;;32.30;13.77;;;;;;;;;;5015402;28;20018;-70
2023/06/29 11:27:33;;;;;;;28.17;13.43;;;;;;;;;;5015374;28;20026;-70
2023/06/29 11:29:58;;;;;;;21.38;11.25;;;;;;;;;;5015362;28;20029;-70
2023/06/29 11:32:26;;;;;;;28.83;13.23;;;;;;;;;;5014128;28;20089;-70
2023/06/29 11:35:02;;;;;;;28.42;11.63;;;;;;;;;;5014090;28;20084;-71
2023/06/29 11:37:28;;;;;;;27.52;12.00;;;;;;;;;;4997632;28;20021;-70
2023/06/29 11:39:54;;;;;;;31.35;13.38;;;;;;;;;;5015154;28;20040;-70
2023/06/29 11:42:23;;;;;;;30.70;14.10;;;;;;;;;;5013969;28;20022;-71
2023/06/29 11:44:49;;;;;;;33.22;14.85;;;;;;;;;;5015070;28;20060;-70
2023/06/29 11:47:15;;;;;;;29.98;15.77;;;;;;;;;;5015102;28;20099;-71
2023/06/29 11:49:41;;;;;;;32.20;15.30;;;;;;;;;;5015022;28;20499;-70
2023/06/29 11:52:07;;;;;;;31.80;15.07;;;;;;;;;;5014912;28;20054;-70
2023/06/29 11:54:32;;;;;;;28.50;13.60;;;;;;;;;;5013670;28;20492;-71
2023/06/29 11:56:58;;;;;;;30.45;13.98;;;;;;;;;;5014799;28;20061;-70
2023/06/29 11:59:24;;;;;;;28.13;13.13;;;;;;;;;;5014944;28;20068;-70
2023/06/29 12:01:50;;;;;;;33.45;15.60;;;;;;;;;;5013594;28;20072;-71
2023/06/29 12:04:15;;;;;;;32.78;16.92;;;;;;;;;;5014842;28;20025;-71
2023/06/29 12:06:53;;;;;;;37.33;16.08;;;;;;;;;;5014808;28;20486;-71
2023/06/29 12:09:19;;;;;;;30.00;14.45;;;;;;;;;;5014761;28;20052;-71
2023/06/29 12:11:44;;;;;;;28.63;14.05;;;;;;;;;;4997177;28;20528;-71
2023/06/29 12:14:10;;;;;;;29.02;14.13;;;;;;;;;;5014572;28;20041;-70
2023/06/29 12:16:44;;;;;;;31.67;13.70;;;;;;;;;;5014908;28;20431;-71
2023/06/29 12:19:13;;;;;;;30.00;14.30;;;;;;;;;;5014587;28;20034;-71
2023/06/29 12:21:38;;;;;;;30.67;15.10;;;;;;;;;;5014959;28;20422;-70
2023/06/29 12:24:04;;;;;;;29.48;15.10;;;;;;;;;;5014060;28;20037;-71
2023/06/29 12:26:30;;;;;;;34.15;15.73;;;;;;;;;;5015282;28;20110;-71
2023/06/29 12:28:55;;;;;;;38.30;15.88;;;;;;;;;;5014998;28;20038;-71
2023/06/29 12:31:25;;;;;;;27.38;13.95;;;;;;;;;;5008323;28;20030;-71
2023/06/29 12:33:50;;;;;;;32.88;15.15;;;;;;;;;;5013158;28;20025;-71
2023/06/29 12:36:16;;;;;;;35.40;16.40;;;;;;;;;;5012294;28;20071;-70
2023/06/29 12:38:41;;;;;;;32.45;14.65;;;;;;;;;;5013307;28;20034;-72
2023/06/29 12:41:06;;;;;;;35.92;16.65;;;;;;;;;;5013593;28;20026;-71
2023/06/29 12:43:32;;;;;;;39.85;15.20;;;;;;;;;;5012716;28;20022;-71
2023/06/29 12:45:57;;;;;;;30.02;13.80;;;;;;;;;;5013403;28;20025;-71
2023/06/29 12:48:22;;;;;;;34.85;16.70;;;;;;;;;;5006944;28;20030;-71
2023/06/29 12:50:48;;;;;;;36.05;15.38;;;;;;;;;;5011963;28;20022;-70
2023/06/29 12:53:13;;;;;;;34.15;14.48;;;;;;;;;;5013528;28;20030;-70
2023/06/29 12:55:39;;;;;;;37.97;14.80;;;;;;;;;;5012686;28;20022;-70
2023/06/29 12:58:05;;;;;;;28.58;13.88;;;;;;;;;;5012438;28;20503;-71
2023/06/29 13:00:30;;;;;;;28.85;14.05;;;;;;;;;;5013184;28;20028;-71
2023/06/29 13:02:56;;;;;;;30.70;14.60;;;;;;;;;;5012963;28;20038;-71
2023/06/29 13:05:22;;;;;;;34.38;15.90;;;;;;;;;;5013619;28;20033;-70
2023/06/29 13:07:47;;;;;;;34.63;15.55;;;;;;;;;;5012987;28;20026;-71
2023/06/29 13:10:13;;;;;;;34.65;16.55;;;;;;;;;;5013552;28;20463;-70
2023/06/29 13:12:40;;;;;;;31.00;15.65;;;;;;;;;;5013651;28;20369;-70
2023/06/29 13:15:06;;;;;;;36.83;16.80;;;;;;;;;;5012364;28;20042;-70
2023/06/29 13:17:32;;;;;;;30.88;16.85;;;;;;;;;;5010764;28;20400;-72
2023/06/29 13:19:57;;;;;;;31.73;14.77;;;;;;;;;;5013159;28;20033;-70
2023/06/29 13:22:22;;;;;;;33.92;15.23;;;;;;;;;;5013304;28;20030;-71
2023/06/29 13:24:48;;;;;;;32.05;15.90;;;;;;;;;;5013183;28;20018;-71
2023/06/29 13:27:13;;;;;;;39.83;16.48;;;;;;;;;;5014048;28;20029;-70
2023/06/29 13:29:39;;;;;;;34.65;15.13;;;;;;;;;;5013334;28;20025;-71
2023/06/29 13:32:04;;;;;;;33.13;14.77;;;;;;;;;;5013752;28;20030;-70
2023/06/29 13:34:30;;;;;;;36.30;16.55;;;;;;;;;;5013211;28;20109;-71
2023/06/29 13:36:56;;;;;;;35.40;16.02;;;;;;;;;;5013096;28;20030;-71
2023/06/29 13:39:22;;;;;;;36.85;17.58;;;;;;;;;;5012166;28;20458;-71
2023/06/29 13:41:49;;;;;;;37.35;17.33;;;;;;;;;;5013276;28;20495;-71
2023/06/29 13:44:14;;;;;;;37.65;16.52;;;;;;;;;;5012211;28;20252;-70
2023/06/29 13:46:40;;;;;;;32.67;15.82;;;;;;;;;;5012489;28;20490;-71
2023/06/29 13:49:06;;;;;;;38.42;16.38;;;;;;;;;;5010512;28;20030;-70
2023/06/29 13:51:32;;;;;;;33.35;16.08;;;;;;;;;;5011564;28;20034;-70
2023/06/29 13:54:00;;;;;;;38.50;16.27;;;;;;;;;;5011665;28;20052;-70
2023/06/29 13:56:25;;;;;;;33.50;15.93;;;;;;;;;;5011884;28;20525;-69
2023/06/29 13:58:51;;;;;;;34.55;15.60;;;;;;;;;;5013098;28;20021;-70
2023/06/29 14:01:17;;;;;;;41.20;17.45;;;;;;;;;;5011791;28;20044;-70
2023/06/29 14:03:42;;;;;;;33.55;15.73;;;;;;;;;;5012827;28;20477;-70
2023/06/29 14:06:07;;;;;;;41.97;17.75;;;;;;;;;;5012545;28;20048;-71
2023/06/29 14:08:36;;;;;;;38.65;16.70;;;;;;;;;;5009957;28;20033;-71
2023/06/29 14:11:04;;;;;;;35.53;16.15;;;;;;;;;;5009675;28;20060;-70